Time;durP1;ratioP1;P1;durP2;ratioP2;P2;SDS_P1;SDS_P2;PMS_P1;PMS_P2;Temp;Humidity;BMP_temperature;BMP_pressure;BME280_temperature;BME280_humidity;BME280_pressure;Samples;Min_cycle;Max_cycle;Signal;HPM_P1;HPM_P2
2023/03/28 00:01:09;;;;;;;2.45;2.20;;;;;;;7.78;63.23;94853.47;5114309;28;20134;-59
2023/03/28 00:03:38;;;;;;;2.67;2.35;;;;;;;7.75;63.56;94856.22;5114379;28;20058;-59
2023/03/28 00:06:09;;;;;;;5.90;2.33;;;;;;;7.74;62.58;94868.44;5114345;28;20079;-59
2023/03/28 00:08:39;;;;;;;2.45;2.20;;;;;;;7.73;63.40;94866.72;5114257;28;20050;-59
2023/03/28 00:11:08;;;;;;;2.25;2.05;;;;;;;7.74;63.17;94871.03;5114490;28;20051;-59
2023/03/28 00:13:36;;;;;;;2.80;2.55;;;;;;;7.67;63.61;94887.88;5114420;28;20498;-59
2023/03/28 00:16:06;;;;;;;4.47;2.25;;;;;;;7.69;63.54;94896.44;5114152;28;20374;-59
2023/03/28 00:18:36;;;;;;;2.50;2.30;;;;;;;7.65;63.26;94890.56;5114234;28;20128;-59
2023/03/28 00:21:06;;;;;;;2.33;2.10;;;;;;;7.73;63.60;94884.94;5113917;28;20051;-59
2023/03/28 00:23:35;;;;;;;2.05;1.90;;;;;;;7.80;63.65;94886.28;5114039;28;20047;-59
2023/03/28 00:26:12;;;;;;;2.60;2.40;;;;;;;7.84;63.43;94886.97;5113925;28;20044;-59
2023/03/28 00:28:39;;;;;;;2.45;2.25;;;;;;;7.88;63.33;94879.84;5113884;28;20082;-59
2023/03/28 00:31:08;;;;;;;2.38;2.17;;;;;;;7.83;63.69;94875.72;5113870;28;20047;-59
2023/03/28 00:33:36;;;;;;;2.42;2.22;;;;;;;7.84;64.17;94882.63;5113792;28;20040;-59
2023/03/28 00:36:03;;;;;;;2.50;2.13;;;;;;;7.84;65.11;94885.22;5113334;28;20401;-59
2023/03/28 00:38:31;;;;;;;2.10;1.98;;;;;;;7.75;64.90;94875.31;5113487;28;20139;-59
2023/03/28 00:41:01;;;;;;;2.30;2.10;;;;;;;7.80;64.62;94878.47;5113588;28;20070;-59
2023/03/28 00:43:40;;;;;;;2.33;2.13;;;;;;;7.82;65.41;94876.66;5113650;28;20050;-59
2023/03/28 00:46:14;;;;;;;2.33;2.13;;;;;;;7.79;65.90;94876.81;5113816;28;20071;-59
2023/03/28 00:48:49;;;;;;;2.55;2.22;;;;;;;7.79;65.18;94882.03;5113662;28;20048;-59
2023/03/28 00:51:19;;;;;;;2.45;2.25;;;;;;;7.81;64.53;94888.00;5113656;28;20409;-59
2023/03/28 00:53:48;;;;;;;6.43;2.60;;;;;;;7.78;65.62;94882.94;5073125;28;20490;-59
2023/03/28 00:56:22;;;;;;;2.53;2.33;;;;;;;7.75;66.07;94892.66;5073193;28;20045;-59
2023/03/28 00:58:51;;;;;;;2.50;2.30;;;;;;;7.78;66.06;94889.91;5072934;28;20053;-59
2023/03/28 01:01:20;;;;;;;3.00;2.80;;;;;;;7.79;66.00;94889.81;5072890;28;20053;-59
2023/03/28 01:04:01;;;;;;;3.03;2.83;;;;;;;7.77;66.36;94898.66;5073125;28;20078;-59
2023/03/28 01:06:31;;;;;;;2.65;2.25;;;;;;;7.74;67.46;94889.25;5072882;28;20048;-59
2023/03/28 01:09:03;;;;;;;2.40;2.20;;;;;;;7.63;67.50;94892.41;5072851;28;20049;-59
2023/03/28 01:11:32;;;;;;;2.45;2.25;;;;;;;7.56;66.52;94886.66;5072809;28;20049;-59
2023/03/28 01:14:03;;;;;;;3.42;2.40;;;;;;;7.58;65.92;94892.66;5072780;28;20045;-59
2023/03/28 01:16:31;;;;;;;1.85;1.75;;;;;;;7.54;64.99;94892.88;5072827;28;20084;-59
2023/03/28 01:19:01;;;;;;;1.85;1.73;;;;;;;7.49;63.51;94895.72;5072738;28;20087;-59
2023/03/28 01:21:55;;;;;;;3.07;1.80;;;;;;;7.51;63.38;94895.66;5072928;28;20399;-59
2023/03/28 01:24:55;;;;;;;1.45;1.35;;;;;;;7.55;62.27;94890.19;5072802;28;20281;-59
2023/03/28 01:27:32;;;;;;;1.37;1.23;;;;;;;7.56;61.64;94893.66;5072732;28;20056;-59
2023/03/28 01:30:32;;;;;;;1.40;1.30;;;;;;;7.56;61.70;94897.09;5072818;28;20060;-59
2023/03/28 01:33:24;;;;;;;1.00;1.00;;;;;;;7.59;60.74;94896.09;5072653;28;20056;-59
2023/03/28 01:36:50;;;;;;;1.30;1.20;;;;;;;7.59;60.21;94893.50;5072929;28;20040;-59
2023/03/28 01:39:30;;;;;;;1.35;1.25;;;;;;;7.55;61.19;94884.16;5072586;28;20193;-60
2023/03/28 01:42:03;;;;;;;1.00;1.00;;;;;;;7.57;60.43;94897.94;5072570;28;20406;-59
2023/03/28 01:44:38;;;;;;;1.38;1.27;;;;;;;7.59;60.21;94899.53;5072887;28;20427;-59
2023/03/28 01:47:14;;;;;;;1.02;1.00;;;;;;;7.55;59.54;94895.41;5072506;28;20506;-59
2023/03/28 01:49:48;;;;;;;1.23;1.13;;;;;;;7.67;59.91;94903.47;5076166;28;20106;-59
2023/03/28 01:52:22;;;;;;;1.27;1.17;;;;;;;7.69;59.07;94896.44;5091734;28;20172;-60
2023/03/28 01:54:55;;;;;;;1.13;1.02;;;;;;;7.63;59.56;94897.63;5116913;28;20104;-60
2023/03/28 01:57:29;;;;;;;0.73;0.73;;;;;;;7.62;58.89;94893.34;5116667;28;20069;-59
2023/03/28 02:00:09;;;;;;;1.05;0.95;;;;;;;7.61;59.10;94896.84;5116788;28;20078;-59
2023/03/28 02:02:41;;;;;;;1.30;1.20;;;;;;;7.66;59.43;94896.59;5116672;28;20120;-59
2023/03/28 02:05:12;;;;;;;0.82;0.82;;;;;;;7.69;58.18;94894.69;5116650;28;20497;-59
2023/03/28 02:07:44;;;;;;;0.90;0.90;;;;;;;7.63;58.78;94896.75;5116533;28;20524;-59
2023/03/28 02:10:14;;;;;;;0.80;0.73;;;;;;;7.64;58.26;94893.22;5116588;28;20075;-59
2023/03/28 02:12:47;;;;;;;;;;;;;;;7.65;58.66;94890.56;5116931;28;20051;-59
2023/03/28 02:15:17;;;;;;;1.38;0.80;;;;;;;7.61;58.64;94898.63;5116533;28;20018;-59
2023/03/28 02:17:50;;;;;;;0.90;0.90;;;;;;;7.58;59.00;94900.47;5116492;28;20054;-60
2023/03/28 02:20:23;;;;;;;0.90;0.90;;;;;;;7.60;58.69;94905.59;5116324;28;20079;-59
2023/03/28 02:22:57;;;;;;;0.70;0.70;;;;;;;7.59;58.12;94912.53;5116742;28;20498;-59
2023/03/28 02:25:25;;;;;;;0.55;0.55;;;;;;;7.64;57.67;94909.69;5116379;28;20048;-59
2023/03/28 02:27:57;;;;;;;0.70;0.70;;;;;;;7.59;57.64;94916.91;5116222;28;20047;-59
2023/03/28 02:30:26;;;;;;;1.50;0.70;;;;;;;7.58;57.35;94917.81;5116167;28;20088;-59
2023/03/28 02:32:59;;;;;;;0.82;0.80;;;;;;;7.54;58.67;94913.69;5116089;28;20096;-59
2023/03/28 02:35:39;;;;;;;0.60;0.60;;;;;;;7.51;58.26;94919.06;5116324;28;20043;-59
2023/03/28 02:38:12;;;;;;;2.95;0.80;;;;;;;7.52;58.78;94924.19;5116344;28;20079;-59
2023/03/28 02:40:53;;;;;;;4.80;1.20;;;;;;;7.47;59.15;94931.41;5116164;28;20039;-59
2023/03/28 02:43:43;;;;;;;1.10;1.00;;;;;;;7.50;58.46;94935.59;5116009;28;20043;-59
2023/03/28 02:46:23;;;;;;;1.02;1.00;;;;;;;7.57;59.24;94942.16;5116207;28;20058;-59
2023/03/28 02:49:11;;;;;;;0.80;0.80;;;;;;;7.54;57.76;94947.53;5115874;28;20044;-59
2023/03/28 02:51:45;;;;;;;0.88;0.73;;;;;;;7.50;59.49;94951.22;5115720;28;20059;-59
2023/03/28 02:54:36;;;;;;;0.70;0.70;;;;;;;7.49;57.72;94952.16;5115818;28;20128;-59
2023/03/28 02:57:10;;;;;;;0.73;0.73;;;;;;;7.39;58.53;94951.75;5110484;28;20497;-60
2023/03/28 02:59:44;;;;;;;2.25;0.80;;;;;;;7.34;58.31;94954.59;5114931;28;20456;-59
2023/03/28 03:02:17;;;;;;;0.80;0.80;;;;;;;7.25;58.60;94950.69;5115520;28;20054;-59
2023/03/28 03:04:45;;;;;;;0.68;0.68;;;;;;;7.24;57.49;94950.75;5115793;28;20117;-59
2023/03/28 03:07:13;;;;;;;1.45;0.70;;;;;;;7.26;57.61;94962.78;5115481;28;20126;-59
2023/03/28 03:09:44;;;;;;;0.60;0.60;;;;;;;7.22;56.26;94966.44;5115710;28;20048;-60
2023/03/28 03:12:12;;;;;;;0.88;0.70;;;;;;;7.16;57.63;94961.53;5115355;28;20098;-59
2023/03/28 03:14:39;;;;;;;1.98;0.68;;;;;;;7.14;56.03;94964.25;5115278;28;20116;-59
2023/03/28 03:17:07;;;;;;;0.70;0.70;;;;;;;7.00;57.21;94966.66;5115360;28;20416;-59
2023/03/28 03:19:35;;;;;;;0.68;0.60;;;;;;;6.92;55.84;94967.03;5115284;28;20469;-59
2023/03/28 03:22:02;;;;;;;0.98;0.70;;;;;;;6.92;56.93;94962.69;5115076;28;20536;-59
2023/03/28 03:24:31;;;;;;;0.52;0.52;;;;;;;6.91;56.23;94958.41;5115005;28;20047;-59
2023/03/28 03:27:00;;;;;;;0.90;0.60;;;;;;;6.88;55.35;94968.94;5115158;28;20108;-59
2023/03/28 03:29:27;;;;;;;0.60;0.60;;;;;;;6.83;55.69;94965.72;5115093;28;20077;-59
2023/03/28 03:31:54;;;;;;;0.50;0.50;;;;;;;6.79;55.49;94959.84;5115029;28;20069;-59
2023/03/28 03:34:23;;;;;;;0.80;0.80;;;;;;;6.71;55.69;94967.16;5114879;28;20039;-59
2023/03/28 03:36:51;;;;;;;0.40;0.40;;;;;;;6.73;55.22;94967.94;5115229;28;20050;-59
2023/03/28 03:39:19;;;;;;;0.50;0.50;;;;;;;6.63;54.40;94982.28;5114819;28;20123;-59
2023/03/28 03:41:46;;;;;;;0.85;0.60;;;;;;;6.55;53.62;94980.03;5114872;28;20055;-59
2023/03/28 03:44:16;;;;;;;0.75;0.50;;;;;;;6.43;53.23;94984.06;5114761;28;20094;-59
2023/03/28 03:46:44;;;;;;;0.60;0.60;;;;;;;6.45;53.66;94979.63;5114635;28;20086;-59
2023/03/28 03:49:12;;;;;;;0.50;0.50;;;;;;;6.38;53.56;94981.66;5114572;28;20043;-59
2023/03/28 03:51:39;;;;;;;0.63;0.45;;;;;;;6.34;52.06;94987.06;5114416;28;20131;-59
2023/03/28 03:54:07;;;;;;;0.40;0.40;;;;;;;6.25;53.01;94998.72;5114577;28;20047;-59
2023/03/28 03:56:34;;;;;;;0.40;0.40;;;;;;;6.23;52.67;94993.59;5114555;28;20048;-59
2023/03/28 03:59:01;;;;;;;0.45;0.40;;;;;;;6.16;53.09;95003.44;5114442;28;20409;-59
2023/03/28 04:01:30;;;;;;;0.50;0.50;;;;;;;6.16;52.11;95007.75;5114385;28;20055;-59
2023/03/28 04:03:57;;;;;;;0.43;0.43;;;;;;;6.13;51.98;95008.75;5114419;28;20047;-59
2023/03/28 04:06:24;;;;;;;0.38;0.38;;;;;;;6.15;51.98;95014.72;5114248;28;20069;-59
2023/03/28 04:08:52;;;;;;;0.50;0.40;;;;;;;6.11;51.93;95020.94;5114387;28;20051;-59
2023/03/28 04:11:19;;;;;;;0.60;0.60;;;;;;;6.12;52.36;95024.41;5113236;28;20056;-59
2023/03/28 04:13:46;;;;;;;1.00;0.57;;;;;;;6.09;52.78;95027.13;5114185;28;20044;-60
2023/03/28 04:16:14;;;;;;;0.52;0.50;;;;;;;6.10;52.35;95028.81;5114115;28;20131;-60
2023/03/28 04:18:49;;;;;;;1.10;0.77;;;;;;;6.15;53.44;95027.72;5114046;28;20408;-60
2023/03/28 04:21:17;;;;;;;1.48;0.98;;;;;;;6.18;58.15;95021.53;5113917;28;20044;-59
2023/03/28 04:23:47;;;;;;;1.25;0.90;;;;;;;6.20;61.04;95040.47;5113963;28;20055;-59
2023/03/28 04:26:24;;;;;;;4.50;1.50;;;;;;;6.23;62.93;95049.91;5113911;28;20082;-59
2023/03/28 04:28:53;;;;;;;2.25;1.60;;;;;;;6.26;64.93;95052.34;5113856;28;20050;-60
2023/03/28 04:31:21;;;;;;;0.60;0.60;;;;;;;6.00;62.21;95059.50;5114136;28;20083;-60
2023/03/28 04:33:52;;;;;;;1.05;1.02;;;;;;;5.87;65.15;95066.97;5114134;28;20050;-60
2023/03/28 04:36:21;;;;;;;6.97;1.60;;;;;;;5.81;67.74;95066.31;5113845;28;20067;-60
2023/03/28 04:38:49;;;;;;;1.42;1.33;;;;;;;5.66;68.11;95061.81;5113839;28;20097;-60
2023/03/28 04:41:16;;;;;;;1.52;1.42;;;;;;;5.67;67.18;95076.44;5113907;28;20143;-59
2023/03/28 04:43:44;;;;;;;1.48;1.38;;;;;;;5.66;67.44;95085.16;5113704;28;20047;-59
2023/03/28 04:46:11;;;;;;;1.25;1.15;;;;;;;5.44;66.91;95088.59;5113693;28;20100;-59
2023/03/28 04:48:38;;;;;;;0.98;0.90;;;;;;;5.43;66.16;95084.34;5113636;28;20061;-60
2023/03/28 04:51:08;;;;;;;0.88;0.88;;;;;;;5.49;66.99;95097.06;5113669;28;20139;-60
2023/03/28 04:53:36;;;;;;;1.25;1.15;;;;;;;5.45;66.27;95085.13;5113702;28;20505;-59
2023/03/28 04:56:04;;;;;;;0.90;0.90;;;;;;;5.35;61.51;95094.16;5113627;28;20059;-59
2023/03/28 04:58:32;;;;;;;1.00;1.00;;;;;;;5.33;61.30;95101.19;5113569;28;20069;-59
2023/03/28 05:01:02;;;;;;;0.80;0.70;;;;;;;5.37;56.12;95107.94;5113463;28;20581;-59
2023/03/28 05:03:29;;;;;;;0.45;0.45;;;;;;;5.39;52.83;95112.13;5113498;28;20136;-59
2023/03/28 05:05:57;;;;;;;2.20;0.70;;;;;;;5.49;53.08;95116.97;5113660;28;20051;-59
2023/03/28 05:08:26;;;;;;;1.17;0.80;;;;;;;5.52;55.68;95122.03;5113346;28;20044;-59
2023/03/28 05:10:56;;;;;;;1.85;1.10;;;;;;;5.57;57.49;95115.75;5113494;28;20044;-60
2023/03/28 05:13:24;;;;;;;0.70;0.70;;;;;;;5.61;53.88;95121.66;5113333;28;20047;-60
2023/03/28 05:15:51;;;;;;;1.00;0.90;;;;;;;5.75;57.87;95125.44;5113366;28;20471;-59
2023/03/28 05:18:19;;;;;;;1.20;1.10;;;;;;;5.80;61.01;95116.53;5113276;28;20090;-60
2023/03/28 05:20:46;;;;;;;1.63;1.40;;;;;;;5.73;63.87;95133.28;5113290;28;20055;-59
2023/03/28 05:23:13;;;;;;;2.08;1.75;;;;;;;5.79;65.02;95134.78;5114768;28;20059;-60
2023/03/28 05:25:42;;;;;;;1.80;1.70;;;;;;;6.04;65.46;95129.44;5117511;28;20069;-60
2023/03/28 05:28:09;;;;;;;1.60;1.35;;;;;;;6.52;63.78;95144.69;5117437;28;20079;-60
2023/03/28 05:30:37;;;;;;;1.90;1.80;;;;;;;7.10;62.01;95149.91;5117476;28;20066;-60
2023/03/28 05:33:05;;;;;;;1.70;1.55;;;;;;;7.86;59.63;95137.69;5117343;28;20051;-58
2023/03/28 05:35:32;;;;;;;1.70;1.60;;;;;;;8.69;57.47;95151.78;5117314;28;20085;-59
2023/03/28 05:38:00;;;;;;;2.13;1.50;;;;;;;9.52;55.42;95156.03;5117360;28;20081;-60
2023/03/28 05:40:27;;;;;;;1.80;1.45;;;;;;;9.98;53.11;95151.72;5117102;28;20046;-59
2023/03/28 05:42:56;;;;;;;1.30;1.20;;;;;;;10.33;51.54;95159.28;5117122;28;20048;-59
2023/03/28 05:45:24;;;;;;;1.17;1.10;;;;;;;10.35;51.06;95160.03;5116975;28;20051;-60
2023/03/28 05:47:55;;;;;;;1.45;1.35;;;;;;;9.72;50.98;95162.75;5117174;28;20043;-59
2023/03/28 05:50:22;;;;;;;1.80;1.70;;;;;;;9.21;53.31;95160.31;5117010;28;20123;-59
2023/03/28 05:52:50;;;;;;;2.15;1.90;;;;;;;9.12;53.61;95173.88;5116613;28;20485;-59
2023/03/28 05:55:17;;;;;;;2.28;1.70;;;;;;;9.31;51.49;95179.78;5116825;28;20044;-59
2023/03/28 05:57:44;;;;;;;4.70;2.20;;;;;;;8.96;53.10;95180.78;5116763;28;20040;-59
2023/03/28 06:00:14;;;;;;;4.07;2.20;;;;;;;8.50;53.64;95175.31;5116797;28;20047;-59
2023/03/28 06:02:42;;;;;;;2.25;2.05;;;;;;;8.45;53.71;95192.03;5116670;28;20087;-59
2023/03/28 06:05:10;;;;;;;1.90;1.80;;;;;;;8.26;55.50;95186.94;5116651;28;20050;-59
2023/03/28 06:07:38;;;;;;;2.30;2.17;;;;;;;8.28;55.36;95179.03;5116568;28;20131;-59
2023/03/28 06:10:06;;;;;;;2.40;2.20;;;;;;;8.29;54.83;95186.78;5116556;28;20485;-59
2023/03/28 06:12:33;;;;;;;2.15;1.98;;;;;;;8.33;54.67;95187.44;5116443;28;20088;-60
2023/03/28 06:15:00;;;;;;;3.28;2.10;;;;;;;8.40;55.62;95181.00;5116393;28;20044;-59
2023/03/28 06:17:30;;;;;;;3.63;1.95;;;;;;;8.69;56.21;95198.69;5116459;28;20050;-59
2023/03/28 06:19:57;;;;;;;1.92;1.83;;;;;;;9.07;54.21;95206.28;5116392;28;20044;-59
2023/03/28 06:22:25;;;;;;;7.60;3.83;;;;;;;8.92;53.48;95210.56;5116259;28;20101;-60
2023/03/28 06:24:52;;;;;;;3.40;2.53;;;;;;;8.88;53.50;95218.59;5116351;28;20043;-59
2023/03/28 06:27:19;;;;;;;5.55;2.67;;;;;;;9.15;52.50;95226.72;5116223;28;20519;-59
2023/03/28 06:29:47;;;;;;;2.53;2.33;;;;;;;9.31;51.27;95237.22;5116238;28;20039;-59
2023/03/28 06:32:14;;;;;;;2.10;1.98;;;;;;;9.11;52.92;95235.66;5116479;28;20044;-59
2023/03/28 06:34:43;;;;;;;2.30;2.10;;;;;;;9.05;51.54;95244.63;5114920;28;20075;-59
2023/03/28 06:37:10;;;;;;;2.78;2.00;;;;;;;9.29;50.63;95251.25;5116135;28;20454;-59
2023/03/28 06:39:37;;;;;;;5.25;2.13;;;;;;;9.48;50.46;95253.69;5116066;28;20043;-59
2023/03/28 06:42:04;;;;;;;2.40;2.20;;;;;;;9.48;50.27;95271.97;5115920;28;20040;-59
2023/03/28 06:44:32;;;;;;;4.55;2.30;;;;;;;9.54;50.65;95276.03;5115997;28;20051;-59
2023/03/28 06:46:59;;;;;;;3.03;2.15;;;;;;;9.70;50.01;95268.22;5115989;28;20044;-59
2023/03/28 06:49:26;;;;;;;2.85;1.83;;;;;;;9.70;48.52;95261.19;5115891;28;20057;-59
2023/03/28 06:51:55;;;;;;;4.20;1.83;;;;;;;9.70;48.55;95269.03;5115730;28;20492;-59
2023/03/28 06:54:23;;;;;;;2.10;1.90;;;;;;;9.46;50.18;95268.63;5115614;28;20508;-60
2023/03/28 06:56:50;;;;;;;2.30;2.10;;;;;;;9.39;50.04;95278.53;5115720;28;20048;-60
2023/03/28 06:59:17;;;;;;;2.28;1.83;;;;;;;9.55;50.25;95275.97;5115672;28;20485;-59
2023/03/28 07:01:45;;;;;;;2.50;2.30;;;;;;;9.58;49.82;95288.81;5115567;28;20127;-59
2023/03/28 07:04:13;;;;;;;2.22;1.80;;;;;;;9.54;49.62;95291.69;5115536;28;20103;-59
2023/03/28 07:06:40;;;;;;;1.88;1.77;;;;;;;9.12;49.65;95284.28;5115516;28;20036;-59
2023/03/28 07:09:09;;;;;;;2.08;1.90;;;;;;;9.17;51.54;95286.66;5115511;28;20098;-59
2023/03/28 07:11:36;;;;;;;2.42;1.70;;;;;;;9.63;50.14;95293.78;5115401;28;20048;-59
2023/03/28 07:14:03;;;;;;;1.60;1.50;;;;;;;10.24;49.10;95296.56;5115387;28;20044;-59
2023/03/28 07:16:30;;;;;;;3.45;1.80;;;;;;;10.93;48.52;95304.91;5115392;28;20039;-59
2023/03/28 07:18:58;;;;;;;2.35;1.65;;;;;;;11.16;46.83;95295.69;5115200;28;20044;-60
2023/03/28 07:21:26;;;;;;;2.90;1.65;;;;;;;11.14;46.75;95287.09;5115198;28;20093;-59
2023/03/28 07:23:53;;;;;;;3.05;1.58;;;;;;;10.80;45.44;95299.56;5115158;28;20047;-58
2023/03/28 07:26:22;;;;;;;2.10;1.48;;;;;;;10.89;47.03;95291.16;5115191;28;20482;-59
2023/03/28 07:28:49;;;;;;;1.75;1.60;;;;;;;11.22;47.30;95291.84;5115106;28;20093;-59
2023/03/28 07:31:17;;;;;;;3.72;1.45;;;;;;;11.47;45.76;95298.22;5115088;28;20051;-59
2023/03/28 07:33:44;;;;;;;1.83;1.30;;;;;;;11.19;43.23;95297.28;5114930;28;20058;-59
2023/03/28 07:36:14;;;;;;;1.50;1.40;;;;;;;10.91;43.39;95297.16;5115140;28;20079;-59
2023/03/28 07:38:41;;;;;;;2.90;1.50;;;;;;;10.86;44.38;95291.34;5114835;28;20504;-59
2023/03/28 07:41:09;;;;;;;1.58;1.45;;;;;;;10.90;45.60;95298.09;5114692;28;20043;-59
2023/03/28 07:43:39;;;;;;;2.22;1.10;;;;;;;10.96;42.74;95300.34;5114559;28;20497;-59
2023/03/28 07:46:08;;;;;;;1.30;1.20;;;;;;;10.85;42.72;95315.84;5114634;28;20075;-59
2023/03/28 07:48:36;;;;;;;3.70;1.30;;;;;;;11.09;45.95;95315.31;5114691;28;20441;-59
2023/03/28 07:51:08;;;;;;;1.25;1.15;;;;;;;10.49;44.53;95318.72;5114662;28;20044;-59
2023/03/28 07:53:36;;;;;;;4.32;1.33;;;;;;;10.07;46.77;95321.03;5114227;28;20063;-59
2023/03/28 07:56:04;;;;;;;1.75;1.40;;;;;;;9.98;47.10;95331.97;5114619;28;20050;-59
2023/03/28 07:58:32;;;;;;;1.65;1.40;;;;;;;10.14;47.43;95333.75;5114724;28;20599;-59
2023/03/28 08:01:06;;;;;;;1.60;1.10;;;;;;;10.31;44.83;95346.72;5114352;28;20134;-59
2023/03/28 08:03:34;;;;;;;1.13;1.13;;;;;;;10.78;45.64;95331.06;5114267;28;20130;-59
2023/03/28 08:06:02;;;;;;;1.20;1.15;;;;;;;11.27;41.46;95328.22;5114273;28;20097;-59
2023/03/28 08:08:30;;;;;;;1.63;1.25;;;;;;;11.45;37.84;95331.50;5114273;28;20048;-59
2023/03/28 08:10:58;;;;;;;1.63;1.10;;;;;;;11.48;39.79;95350.50;5114284;28;20051;-59
2023/03/28 08:13:25;;;;;;;0.85;0.80;;;;;;;11.57;37.43;95359.56;5114257;28;20047;-59
2023/03/28 08:15:55;;;;;;;1.20;0.90;;;;;;;11.18;36.76;95350.56;5114324;28;20097;-59
2023/03/28 08:18:25;;;;;;;0.70;0.70;;;;;;;11.38;38.86;95355.44;5114094;28;20458;-59
2023/03/28 08:21:00;;;;;;;1.38;0.68;;;;;;;11.77;38.20;95356.66;5114194;28;20047;-59
2023/03/28 08:23:27;;;;;;;1.17;0.75;;;;;;;11.71;36.76;95358.72;5114120;28;20405;-59
2023/03/28 08:26:03;;;;;;;1.83;1.00;;;;;;;12.01;37.07;95354.28;5114086;28;20512;-59
2023/03/28 08:28:33;;;;;;;3.20;0.88;;;;;;;12.04;37.68;95363.75;5114271;28;20043;-59
2023/03/28 08:31:00;;;;;;;0.93;0.75;;;;;;;12.30;35.84;95356.88;5114110;28;20054;-59
2023/03/28 08:33:31;;;;;;;4.50;0.90;;;;;;;12.25;35.99;95351.06;5113822;28;20051;-59
2023/03/28 08:35:58;;;;;;;1.33;0.70;;;;;;;12.32;34.95;95362.03;5113833;28;20079;-59
2023/03/28 08:38:25;;;;;;;1.05;0.90;;;;;;;12.35;36.29;95364.47;5113896;28;20050;-59
2023/03/28 08:41:00;;;;;;;1.17;0.80;;;;;;;12.10;33.46;95361.59;5113837;28;20081;-59
2023/03/28 08:43:49;;;;;;;1.55;1.45;;;;;;;12.22;35.54;95373.09;5113818;28;20138;-59
2023/03/28 08:46:18;;;;;;;0.70;0.70;;;;;;;11.91;33.20;95384.63;5113812;28;20048;-59
2023/03/28 08:48:48;;;;;;;1.95;0.90;;;;;;;11.74;34.89;95391.75;5113640;28;20126;-58
2023/03/28 08:51:22;;;;;;;1.10;0.80;;;;;;;11.71;36.11;95384.09;5113649;28;20489;-59
2023/03/28 08:53:56;;;;;;;2.22;0.80;;;;;;;11.64;38.69;95388.84;5113644;28;20394;-58
2023/03/28 08:56:23;;;;;;;2.92;1.10;;;;;;;11.90;36.51;95394.28;5113604;28;20508;-59
2023/03/28 08:58:58;;;;;;;4.95;0.70;;;;;;;11.92;35.22;95399.44;5113007;28;20485;-59
2023/03/28 09:01:31;;;;;;;2.58;0.85;;;;;;;12.03;35.52;95399.59;5113521;28;20101;-58
2023/03/28 09:04:00;;;;;;;2.00;0.98;;;;;;;12.43;36.51;95406.75;5113447;28;20397;-58
2023/03/28 09:06:35;;;;;;;3.80;0.98;;;;;;;12.63;35.28;95399.41;5113338;28;20401;-58
2023/03/28 09:09:37;;;;;;;1.38;1.20;;;;;;;12.92;33.78;95406.31;5113372;28;20126;-58
2023/03/28 09:12:22;;;;;;;0.80;0.70;;;;;;;12.95;32.99;95416.63;5111012;28;20040;-59
2023/03/28 09:15:12;;;;;;;1.27;1.00;;;;;;;13.11;35.36;95404.16;5113556;28;20044;-59
2023/03/28 09:17:51;;;;;;;0.73;0.73;;;;;;;13.20;32.49;95410.59;5110704;28;20047;-59
2023/03/28 09:20:27;;;;;;;1.35;1.00;;;;;;;13.11;31.12;95404.16;5113296;28;20079;-59
2023/03/28 09:23:06;;;;;;;1.63;1.10;;;;;;;13.23;33.40;95407.75;5113201;28;20100;-59
2023/03/28 09:25:42;;;;;;;1.58;1.10;;;;;;;13.16;32.03;95403.00;5113364;28;20052;-58
2023/03/28 09:28:23;;;;;;;1.67;1.00;;;;;;;12.75;32.04;95427.47;5113400;28;20051;-59
2023/03/28 09:30:53;;;;;;;1.30;1.00;;;;;;;11.71;32.97;95439.91;5113192;28;20101;-59
2023/03/28 09:33:27;;;;;;;1.67;0.90;;;;;;;11.34;32.80;95435.09;5113492;28;20130;-59
2023/03/28 09:35:57;;;;;;;1.20;1.10;;;;;;;10.91;34.62;95441.06;5113193;28;20058;-59
2023/03/28 09:38:30;;;;;;;1.10;1.00;;;;;;;10.82;35.35;95437.19;5113455;28;20101;-59
2023/03/28 09:41:00;;;;;;;1.13;1.00;;;;;;;11.17;35.03;95428.22;5113301;28;20048;-59
2023/03/28 09:43:33;;;;;;;0.93;0.90;;;;;;;11.58;32.82;95436.34;5113067;28;20060;-59
2023/03/28 09:46:05;;;;;;;2.00;1.20;;;;;;;11.83;33.30;95427.03;5113365;28;20467;-59
2023/03/28 09:48:34;;;;;;;3.13;0.98;;;;;;;11.45;32.57;95441.47;5112894;28;20062;-59
2023/03/28 09:51:03;;;;;;;3.38;1.00;;;;;;;11.27;32.65;95425.06;5113047;28;20123;-59
2023/03/28 09:53:32;;;;;;;4.32;0.90;;;;;;;11.14;32.58;95431.03;5113178;28;20123;-59
2023/03/28 09:56:04;;;;;;;3.70;0.95;;;;;;;11.30;32.59;95436.22;5112926;28;20184;-59
2023/03/28 09:58:48;;;;;;;3.35;1.10;;;;;;;11.23;32.53;95433.09;5112978;28;20044;-59
2023/03/28 10:01:26;;;;;;;1.33;0.90;;;;;;;10.97;32.87;95427.63;5113020;28;20057;-59
2023/03/28 10:03:56;;;;;;;1.10;1.00;;;;;;;10.64;34.08;95446.91;5112793;28;20054;-59
2023/03/28 10:06:27;;;;;;;2.88;1.00;;;;;;;10.31;31.97;95456.50;5113313;28;20044;-59
2023/03/28 10:09:09;;;;;;;2.38;0.90;;;;;;;9.86;32.73;95448.41;5113827;28;20097;-59
2023/03/28 10:11:47;;;;;;;1.10;1.00;;;;;;;9.76;32.98;95457.66;5116954;28;20131;-58
2023/03/28 10:14:33;;;;;;;0.93;0.80;;;;;;;9.45;33.18;95452.25;5116434;28;20481;-59
2023/03/28 10:17:02;;;;;;;0.95;0.85;;;;;;;9.22;33.62;95472.53;5116477;28;20044;-59
2023/03/28 10:19:33;;;;;;;1.30;1.00;;;;;;;9.33;33.34;95469.38;5116335;28;20052;-59
2023/03/28 10:22:07;;;;;;;4.07;1.10;;;;;;;9.33;33.29;95493.69;5116477;28;20548;-58
2023/03/28 10:24:36;;;;;;;1.15;0.95;;;;;;;9.22;32.79;95491.63;5116391;28;20060;-59
2023/03/28 10:27:16;;;;;;;1.10;1.00;;;;;;;9.17;32.62;95484.94;5116368;28;20047;-58
2023/03/28 10:29:44;;;;;;;;;;;;;;;9.06;34.10;95478.47;5116686;28;20082;-58
2023/03/28 10:32:24;;;;;;;1.15;1.05;;;;;;;9.05;34.09;95487.25;5116284;28;19924;-59
2023/03/28 10:35:01;;;;;;;1.30;0.95;;;;;;;9.07;33.01;95481.94;5116164;28;20397;-58
2023/03/28 10:37:31;;;;;;;2.30;1.00;;;;;;;9.14;32.75;95487.69;5116018;28;20051;-58
2023/03/28 10:40:01;;;;;;;1.13;0.80;;;;;;;9.29;32.83;95473.91;5116103;28;20062;-58
2023/03/28 10:42:28;;;;;;;1.70;0.90;;;;;;;9.42;32.77;95475.91;5115889;28;20075;-59
2023/03/28 10:45:04;;;;;;;2.15;1.00;;;;;;;9.67;35.37;95479.88;5116215;28;20048;-58
2023/03/28 10:47:31;;;;;;;1.48;0.80;;;;;;;10.02;31.87;95489.41;5115899;28;20048;-58
2023/03/28 10:50:00;;;;;;;0.80;0.80;;;;;;;10.43;31.78;95494.19;5116242;28;20085;-59
2023/03/28 10:52:35;;;;;;;1.40;0.88;;;;;;;10.47;31.80;95482.66;5115678;28;20512;-58
2023/03/28 10:55:13;;;;;;;8.20;1.10;;;;;;;10.10;31.99;95495.06;5115740;28;20052;-59
2023/03/28 10:57:52;;;;;;;1.70;0.80;;;;;;;9.94;31.95;95488.03;5116197;28;20066;-58
2023/03/28 11:00:24;;;;;;;0.90;0.80;;;;;;;10.08;33.09;95499.50;5115845;28;20044;-58
2023/03/28 11:03:14;;;;;;;1.00;0.90;;;;;;;10.14;31.58;95521.91;5115621;28;20044;-58
2023/03/28 11:05:45;;;;;;;;;;;;;;;10.17;31.33;95511.28;5116035;28;20071;-58
2023/03/28 11:08:30;;;;;;;1.23;1.10;;;;;;;9.94;30.50;95493.25;5115725;28;20007;-59
2023/03/28 11:11:06;;;;;;;0.85;0.77;;;;;;;9.87;31.15;95499.72;5115447;28;20054;-58
2023/03/28 11:13:42;;;;;;;1.55;1.17;;;;;;;9.98;33.26;95515.69;5115500;28;20048;-58
2023/03/28 11:16:18;;;;;;;1.70;1.27;;;;;;;10.24;32.39;95497.78;5114614;28;20432;-59
2023/03/28 11:19:01;;;;;;;1.40;0.90;;;;;;;10.35;29.87;95496.38;5115408;28;20142;-58
2023/03/28 11:21:36;;;;;;;2.72;1.60;;;;;;;10.47;32.70;95510.56;5114694;28;20048;-58
2023/03/28 11:24:14;;;;;;;2.50;1.00;;;;;;;10.62;31.60;95498.44;5115094;28;20051;-59
2023/03/28 11:26:54;;;;;;;2.30;1.13;;;;;;;10.74;28.73;95512.63;5115156;28;20086;-58
2023/03/28 11:29:31;;;;;;;1.90;0.75;;;;;;;10.64;29.80;95508.81;5115144;28;20409;-59
2023/03/28 11:32:09;;;;;;;1.30;1.20;;;;;;;10.60;31.12;95497.69;5115188;28;20047;-59
2023/03/28 11:34:43;;;;;;;1.73;1.23;;;;;;;10.84;31.61;95515.59;5114968;28;20046;-58
2023/03/28 11:37:18;;;;;;;1.35;1.23;;;;;;;10.89;31.90;95526.63;5114899;28;20052;-59
2023/03/28 11:39:52;;;;;;;1.17;1.08;;;;;;;11.03;31.45;95520.63;5114957;28;20055;-59
2023/03/28 11:42:27;;;;;;;6.25;1.20;;;;;;;10.90;30.79;95519.63;5114938;28;20052;-59
2023/03/28 11:45:01;;;;;;;2.05;1.20;;;;;;;10.39;29.82;95508.38;5114712;28;20105;-59
2023/03/28 11:47:32;;;;;;;1.95;1.30;;;;;;;10.34;31.48;95526.91;5114736;28;20044;-58
2023/03/28 11:50:04;;;;;;;1.13;0.98;;;;;;;10.24;31.36;95533.56;5114812;28;20537;-59
2023/03/28 11:52:36;;;;;;;1.45;0.90;;;;;;;10.06;32.00;95540.56;5114489;28;20131;-58
2023/03/28 11:55:14;;;;;;;3.70;1.17;;;;;;;10.20;33.34;95540.69;5114538;28;20047;-59
2023/03/28 11:57:50;;;;;;;2.20;1.30;;;;;;;10.13;31.79;95541.94;5114626;28;20051;-59
2023/03/28 12:00:26;;;;;;;1.92;1.35;;;;;;;10.10;31.61;95529.03;5114785;28;20044;-59